createdAt,value
2024-03-02T00:00:58.016Z,8.80
2024-03-02T00:03:26.470Z,8.90
2024-03-02T00:05:56.038Z,8.90
2024-03-02T00:08:27.558Z,8.80
2024-03-02T00:10:59.918Z,8.90
2024-03-02T00:13:28.497Z,8.90
2024-03-02T00:15:57.690Z,8.70
2024-03-02T00:18:28.355Z,8.80
2024-03-02T00:20:59.193Z,8.90
2024-03-02T00:23:32.027Z,8.90
2024-03-02T00:26:01.135Z,8.80
2024-03-02T00:28:31.444Z,8.80
2024-03-02T00:31:08.546Z,8.80
2024-03-02T00:33:38.423Z,8.70
2024-03-02T00:36:09.300Z,8.60
2024-03-02T00:38:46.479Z,8.60
2024-03-02T00:41:19.268Z,8.70
2024-03-02T00:43:51.791Z,8.60
2024-03-02T00:46:21.213Z,8.60
2024-03-02T00:48:59.213Z,8.80
2024-03-02T00:51:30.493Z,8.80
2024-03-02T00:54:02.071Z,8.70
2024-03-02T00:56:30.359Z,8.70
2024-03-02T00:58:58.905Z,8.70
2024-03-02T01:01:27.203Z,8.70
2024-03-02T01:03:55.901Z,8.70
2024-03-02T01:06:24.505Z,8.80
2024-03-02T01:08:54.183Z,8.90
2024-03-02T01:11:23.378Z,8.80
2024-03-02T01:13:53.091Z,8.80
2024-03-02T01:16:21.518Z,8.80
2024-03-02T01:18:50.051Z,8.80
2024-03-02T01:21:18.586Z,8.90
2024-03-02T01:23:46.868Z,8.90
2024-03-02T01:26:16.967Z,9.00
2024-03-02T01:28:45.114Z,9.00
2024-03-02T01:31:14.207Z,8.90
2024-03-02T01:33:42.688Z,8.90
2024-03-02T01:36:10.812Z,8.80
2024-03-02T01:38:38.936Z,8.80
2024-03-02T01:41:07.093Z,8.70
2024-03-02T01:43:39.446Z,8.70
2024-03-02T01:46:10.547Z,8.60
2024-03-02T01:48:38.808Z,8.50
2024-03-02T01:51:07.902Z,8.50
2024-03-02T01:53:36.613Z,8.60
2024-03-02T01:56:05.200Z,8.60
2024-03-02T01:58:33.409Z,8.60
2024-03-02T02:01:03.205Z,8.60
2024-03-02T02:03:31.626Z,8.60
2024-03-02T02:06:00.172Z,8.60
2024-03-02T02:08:28.297Z,8.70
2024-03-02T02:10:56.695Z,8.70
2024-03-02T02:13:25.352Z,8.70
2024-03-02T02:15:54.499Z,8.70
2024-03-02T02:18:24.437Z,8.60
2024-03-02T02:20:52.714Z,8.60
2024-03-02T02:23:22.185Z,8.60
2024-03-02T02:25:50.369Z,8.60
2024-03-02T02:28:18.616Z,8.60
2024-03-02T02:30:46.759Z,8.50
2024-03-02T02:33:15.116Z,8.40
2024-03-02T02:35:43.338Z,8.50
2024-03-02T02:38:11.501Z,8.60
2024-03-02T02:40:41.073Z,8.60
2024-03-02T02:43:09.270Z,8.50
2024-03-02T02:45:37.624Z,8.40
2024-03-02T02:48:07.105Z,8.40
2024-03-02T02:50:35.241Z,8.40
2024-03-02T02:53:03.411Z,8.30
2024-03-02T02:55:31.648Z,8.40
2024-03-02T02:58:01.340Z,8.40
2024-03-02T03:00:29.768Z,8.40
2024-03-02T03:02:58.061Z,8.40
2024-03-02T03:05:26.277Z,8.40
2024-03-02T03:07:54.555Z,8.30
2024-03-02T03:10:24.410Z,8.30
2024-03-02T03:12:53.008Z,8.20
2024-03-02T03:15:22.823Z,8.20
2024-03-02T03:17:52.074Z,8.20
2024-03-02T03:20:22.697Z,8.10
2024-03-02T03:22:51.117Z,8.20
2024-03-02T03:25:19.294Z,8.20
2024-03-02T03:27:47.594Z,8.20
2024-03-02T03:30:16.330Z,8.20
2024-03-02T03:32:46.227Z,8.20
2024-03-02T03:35:15.934Z,8.20
2024-03-02T03:37:44.097Z,8.20
2024-03-02T03:40:13.248Z,8.20
2024-03-02T03:42:41.761Z,8.20
2024-03-02T03:45:10.645Z,8.20
2024-03-02T03:47:38.878Z,8.30
2024-03-02T03:50:09.544Z,8.30
2024-03-02T03:52:37.807Z,8.30
2024-03-02T03:55:07.397Z,8.20
2024-03-02T03:57:36.102Z,8.20
2024-03-02T04:00:05.371Z,8.20
2024-03-02T04:02:33.662Z,8.20
2024-03-02T04:05:01.864Z,8.20
2024-03-02T04:07:31.414Z,8.20
2024-03-02T04:09:59.658Z,8.20
2024-03-02T04:12:27.880Z,8.20
2024-03-02T04:14:56.037Z,8.10
2024-03-02T04:17:24.129Z,8.10
2024-03-02T04:19:52.192Z,8.20
2024-03-02T04:22:25.132Z,8.10
2024-03-02T04:24:55.583Z,8.10
2024-03-02T04:27:23.837Z,8.10
2024-03-02T04:29:51.910Z,8.10
2024-03-02T04:32:20.900Z,8.10
2024-03-02T04:34:49.241Z,8.00
2024-03-02T04:37:17.366Z,7.90
2024-03-02T04:39:45.595Z,7.80
2024-03-02T04:42:15.350Z,7.60
2024-03-02T04:44:43.547Z,7.70
2024-03-02T04:47:11.706Z,7.90
2024-03-02T04:49:40.025Z,7.90
2024-03-02T04:52:08.357Z,8.00
2024-03-02T04:54:57.371Z,8.00
2024-03-02T04:57:25.982Z,8.00
2024-03-02T04:59:53.997Z,7.90
2024-03-02T05:02:22.167Z,7.90
2024-03-02T05:04:50.348Z,8.00
2024-03-02T05:07:18.572Z,8.00
2024-03-02T05:09:46.752Z,8.00
2024-03-02T05:12:36.349Z,8.00
2024-03-02T05:15:06.906Z,8.00
2024-03-02T05:17:35.136Z,8.00
2024-03-02T05:20:03.745Z,8.00
2024-03-02T05:22:31.837Z,7.90
2024-03-02T05:25:01.866Z,8.00
2024-03-02T05:27:30.091Z,8.10
2024-03-02T05:29:59.360Z,8.00
2024-03-02T05:32:28.990Z,8.10
2024-03-02T05:34:57.171Z,8.10
2024-03-02T05:37:25.438Z,8.10
2024-03-02T05:39:53.692Z,8.20
2024-03-02T05:42:21.937Z,8.10
2024-03-02T05:44:50.147Z,8.00
2024-03-02T05:47:18.636Z,7.90
2024-03-02T05:49:48.096Z,7.90
2024-03-02T05:52:16.290Z,7.90
2024-03-02T05:54:44.654Z,7.90
2024-03-02T05:57:33.106Z,7.90
2024-03-02T06:00:01.351Z,8.00
2024-03-02T06:02:29.595Z,8.00
2024-03-02T06:04:59.205Z,8.00
2024-03-02T06:07:27.228Z,8.00
2024-03-02T06:09:55.666Z,8.00
2024-03-02T06:12:24.085Z,8.00
2024-03-02T06:14:52.494Z,8.10
2024-03-02T06:17:21.028Z,8.00
2024-03-02T06:19:49.248Z,8.10
2024-03-02T06:22:20.276Z,8.10
2024-03-02T06:24:48.528Z,8.10
2024-03-02T06:27:16.665Z,8.10
2024-03-02T06:29:44.992Z,8.10
2024-03-02T06:32:13.133Z,8.10
2024-03-02T06:34:40.226Z,8.10
2024-03-02T06:37:08.430Z,8.10
2024-03-02T06:39:38.109Z,8.10
2024-03-02T06:42:06.880Z,8.10
2024-03-02T06:44:36.225Z,8.10
2024-03-02T06:47:05.392Z,8.00
2024-03-02T06:49:33.558Z,8.10
2024-03-02T06:52:01.715Z,8.00
2024-03-02T06:54:29.935Z,8.00
2024-03-02T06:56:59.468Z,8.10
2024-03-02T06:59:27.605Z,8.10
2024-03-02T07:01:55.759Z,8.30
2024-03-02T07:04:23.910Z,8.30
2024-03-02T07:06:52.217Z,8.30
2024-03-02T07:09:23.820Z,8.30
2024-03-02T07:11:52.489Z,8.30
2024-03-02T07:14:23.479Z,8.30
2024-03-02T07:16:51.692Z,8.30
2024-03-02T07:19:19.957Z,8.40
2024-03-02T07:21:48.310Z,8.40
2024-03-02T07:24:17.597Z,8.40
2024-03-02T07:29:16.801Z,8.50
2024-03-02T07:31:46.458Z,8.50
2024-03-02T07:34:14.633Z,8.50
2024-03-02T07:36:43.210Z,8.50
2024-03-02T07:39:11.873Z,8.50
2024-03-02T07:41:40.002Z,8.60
2024-03-02T07:44:08.500Z,8.60
2024-03-02T07:46:36.681Z,8.60
2024-03-02T07:49:06.452Z,8.60
2024-03-02T07:51:34.531Z,8.70
2024-03-02T07:54:02.652Z,8.70
2024-03-02T07:56:30.857Z,8.80
2024-03-02T07:59:02.102Z,8.90
2024-03-02T08:01:31.378Z,8.80
2024-03-02T08:03:59.854Z,8.90
2024-03-02T08:06:29.983Z,9.10
2024-03-02T08:08:59.001Z,9.30
2024-03-02T08:11:28.428Z,9.60
2024-03-02T08:13:56.771Z,9.80
2024-03-02T08:16:26.597Z,9.90
2024-03-02T08:18:55.105Z,10.10
2024-03-02T08:21:23.563Z,10.60
2024-03-02T08:23:53.353Z,10.80
2024-03-02T08:26:21.715Z,11.20
2024-03-02T08:28:49.890Z,11.50
2024-03-02T08:31:17.995Z,11.90
2024-03-02T08:33:46.169Z,12.40
2024-03-02T08:36:14.431Z,12.70
2024-03-02T08:38:42.717Z,13.00
2024-03-02T08:41:14.233Z,13.40
2024-03-02T08:43:43.761Z,13.90
2024-03-02T08:46:12.167Z,14.20
2024-03-02T08:48:40.364Z,14.60
2024-03-02T08:51:09.852Z,15.10
2024-03-02T08:53:38.712Z,15.50
2024-03-02T08:56:07.468Z,15.40
2024-03-02T08:58:37.162Z,15.20
2024-03-02T09:01:05.783Z,15.10
2024-03-02T09:03:34.988Z,15.10
2024-03-02T09:06:03.216Z,15.10
2024-03-02T09:08:31.416Z,15.50
2024-03-02T09:10:59.540Z,16.70
2024-03-02T09:13:27.687Z,17.70
2024-03-02T09:15:57.477Z,18.60
2024-03-02T09:18:25.763Z,19.10
2024-03-02T09:20:53.978Z,19.40
2024-03-02T09:23:22.797Z,20.20
2024-03-02T09:25:51.010Z,20.70
2024-03-02T09:28:19.545Z,20.80
2024-03-02T09:30:47.827Z,20.90
2024-03-02T09:33:17.960Z,21.20
2024-03-02T09:35:46.276Z,21.80
2024-03-02T09:38:14.930Z,22.00
2024-03-02T09:40:44.176Z,22.20
2024-03-02T09:43:12.701Z,22.50
2024-03-02T09:45:41.090Z,22.70
2024-03-02T09:48:10.105Z,23.20
2024-03-02T09:50:40.032Z,23.30
2024-03-02T09:53:10.047Z,23.70
2024-03-02T09:55:38.160Z,23.90
2024-03-02T09:58:06.525Z,24.00
2024-03-02T10:00:35.306Z,24.40
2024-03-02T10:03:03.706Z,23.80
2024-03-02T10:05:31.712Z,23.60
2024-03-02T10:08:05.045Z,23.40
2024-03-02T10:10:44.230Z,23.00
2024-03-02T10:13:13.924Z,22.70
2024-03-02T10:15:43.503Z,22.00
2024-03-02T10:18:13.473Z,22.10
2024-03-02T10:20:42.560Z,22.00
2024-03-02T10:23:17.363Z,22.30
2024-03-02T10:25:52.119Z,22.70
2024-03-02T10:28:26.248Z,23.30
2024-03-02T10:30:54.873Z,23.80
2024-03-02T10:33:23.200Z,24.20
2024-03-02T10:35:52.517Z,24.70
2024-03-02T10:38:22.276Z,25.10
2024-03-02T10:40:50.754Z,25.40
2024-03-02T10:43:21.150Z,26.10
2024-03-02T10:45:52.717Z,26.80
2024-03-02T10:48:22.654Z,28.00
2024-03-02T10:50:52.084Z,28.50
2024-03-02T10:53:21.605Z,30.20
2024-03-02T10:55:54.316Z,30.90
2024-03-02T10:58:22.914Z,30.90
2024-03-02T11:00:51.474Z,31.80
2024-03-02T11:03:20.422Z,30.80
2024-03-02T11:05:49.771Z,30.10
2024-03-02T11:08:22.391Z,30.90
2024-03-02T11:10:53.671Z,30.80
2024-03-02T11:13:27.083Z,30.20
2024-03-02T11:15:58.121Z,31.40
2024-03-02T11:18:27.101Z,31.70
2024-03-02T11:20:56.168Z,31.40
2024-03-02T11:23:34.868Z,30.70
2024-03-02T11:26:20.723Z,31.90
2024-03-02T11:28:49.540Z,32.90
2024-03-02T11:31:17.756Z,32.20
2024-03-02T11:33:46.006Z,32.10
2024-03-02T11:36:14.205Z,31.60
2024-03-02T11:38:46.671Z,30.20
2024-03-02T11:41:15.608Z,27.40
2024-03-02T11:43:46.715Z,24.70
2024-03-02T11:46:17.508Z,23.00
2024-03-02T11:48:45.615Z,21.00
2024-03-02T11:51:14.138Z,20.70
2024-03-02T11:53:45.126Z,20.50
2024-03-02T11:56:15.867Z,19.80
2024-03-02T11:58:44.827Z,19.40
2024-03-02T12:01:14.632Z,19.40
2024-03-02T12:03:43.183Z,19.70
2024-03-02T12:06:11.791Z,19.80
2024-03-02T12:08:40.804Z,19.80
2024-03-02T12:11:10.408Z,19.80
2024-03-02T12:13:38.524Z,19.80
2024-03-02T12:16:07.773Z,19.60
2024-03-02T12:18:37.140Z,19.60
2024-03-02T12:21:07.705Z,19.50
2024-03-02T12:23:36.553Z,19.10
2024-03-02T12:26:04.974Z,18.80
2024-03-02T12:28:35.986Z,18.90
2024-03-02T12:31:04.371Z,18.90
2024-03-02T12:33:32.788Z,18.60
2024-03-02T12:36:01.250Z,18.40
2024-03-02T12:38:30.631Z,18.60
2024-03-02T12:40:58.883Z,18.70
2024-03-02T12:43:31.519Z,18.50
2024-03-02T12:46:01.402Z,18.40
2024-03-02T12:48:29.951Z,18.40
2024-03-02T12:50:58.171Z,18.30
2024-03-02T12:53:26.403Z,18.50
2024-03-02T12:55:55.528Z,18.50
2024-03-02T12:58:25.213Z,18.40
2024-03-02T13:01:10.281Z,18.50
2024-03-02T13:03:39.853Z,18.50
2024-03-02T13:06:08.921Z,18.40
2024-03-02T13:08:37.335Z,18.40
2024-03-02T13:11:08.351Z,18.10
2024-03-02T13:13:36.782Z,18.40
2024-03-02T13:16:05.653Z,18.60
2024-03-02T13:18:36.017Z,18.70
2024-03-02T13:21:04.293Z,18.50
2024-03-02T13:23:32.841Z,18.60
2024-03-02T13:26:01.046Z,18.40
2024-03-02T13:28:29.394Z,18.60
2024-03-02T13:30:57.574Z,18.60
2024-03-02T13:33:25.869Z,18.50
2024-03-02T13:35:55.416Z,18.50
2024-03-02T13:38:23.734Z,18.50
2024-03-02T13:40:53.270Z,18.40
2024-03-02T13:43:21.552Z,18.30
2024-03-02T13:45:49.742Z,18.20
2024-03-02T13:48:17.898Z,18.10
2024-03-02T13:50:46.595Z,18.20
2024-03-02T13:53:16.033Z,18.10
2024-03-02T13:55:44.121Z,18.00
2024-03-02T13:58:13.151Z,18.00
2024-03-02T14:00:41.474Z,17.90
2024-03-02T14:03:09.740Z,17.90
2024-03-02T14:05:38.481Z,18.00
2024-03-02T14:08:06.994Z,18.00
2024-03-02T14:10:36.766Z,18.00
2024-03-02T14:13:05.136Z,17.90
2024-03-02T14:15:33.570Z,18.00
2024-03-02T14:18:01.790Z,18.00
2024-03-02T14:20:30.659Z,18.00
2024-03-02T14:23:00.305Z,18.00
2024-03-02T14:25:31.602Z,18.00
2024-03-02T14:28:25.843Z,18.10
2024-03-02T14:30:49.510Z,18.20
2024-03-02T14:33:17.893Z,18.10
2024-03-02T14:35:47.185Z,18.00
2024-03-02T14:38:16.542Z,18.10
2024-03-02T14:40:44.651Z,18.10
2024-03-02T14:43:14.277Z,18.20
2024-03-02T14:45:42.498Z,18.20
2024-03-02T14:48:10.654Z,18.20
2024-03-02T14:50:39.706Z,18.10
2024-03-02T14:53:08.380Z,18.10
2024-03-02T14:55:36.596Z,18.10
2024-03-02T14:58:04.984Z,18.10
2024-03-02T15:00:34.577Z,18.20
2024-03-02T15:03:02.857Z,18.10
2024-03-02T15:05:30.968Z,18.10
2024-03-02T15:08:00.494Z,18.00
2024-03-02T15:10:28.687Z,17.80
2024-03-02T15:12:56.892Z,17.80
2024-03-02T15:15:25.139Z,17.80
2024-03-02T15:17:54.710Z,17.60
2024-03-02T15:20:23.248Z,17.50
2024-03-02T15:22:51.501Z,17.50
2024-03-02T15:25:19.679Z,17.40
2024-03-02T15:27:47.886Z,17.30
2024-03-02T15:30:16.452Z,17.20
2024-03-02T15:32:44.594Z,16.90
2024-03-02T15:35:14.093Z,16.80
2024-03-02T15:37:42.192Z,16.90
2024-03-02T15:40:12.283Z,16.70
2024-03-02T15:42:40.813Z,16.70
2024-03-02T15:45:09.666Z,16.60
2024-03-02T15:47:38.165Z,16.50
2024-03-02T15:50:07.269Z,16.40
2024-03-02T15:52:36.801Z,16.50
2024-03-02T15:55:07.360Z,16.30
2024-03-02T15:57:36.427Z,16.20
2024-03-02T16:00:06.177Z,16.30
2024-03-02T16:02:34.371Z,16.20
2024-03-02T16:05:02.512Z,16.10
2024-03-02T16:07:30.715Z,16.10
2024-03-02T16:10:04.397Z,16.10
2024-03-02T16:12:32.594Z,16.00
2024-03-02T16:15:00.850Z,15.90
2024-03-02T16:17:28.918Z,15.80
2024-03-02T16:19:58.874Z,15.50
2024-03-02T16:22:27.031Z,15.50
2024-03-02T16:24:55.285Z,15.50
2024-03-02T16:27:25.734Z,15.40
2024-03-02T16:29:55.908Z,15.40
2024-03-02T16:32:24.064Z,15.40
2024-03-02T16:34:52.483Z,15.40
2024-03-02T16:37:21.553Z,15.40
2024-03-02T16:39:50.000Z,15.30
2024-03-02T16:42:21.050Z,15.30
2024-03-02T16:44:53.023Z,15.30
2024-03-02T16:47:21.196Z,15.20
2024-03-02T16:49:49.290Z,15.10
2024-03-02T16:52:18.132Z,15.10
2024-03-02T16:54:50.213Z,14.90
2024-03-02T16:57:19.132Z,14.90
2024-03-02T16:59:47.521Z,14.90
2024-03-02T17:02:17.162Z,14.80
2024-03-02T17:04:45.295Z,14.60
2024-03-02T17:07:13.670Z,14.60
2024-03-02T17:09:42.166Z,14.50
2024-03-02T17:12:10.578Z,14.50
2024-03-02T17:14:38.721Z,14.60
2024-03-02T17:17:06.978Z,14.50
2024-03-02T17:19:36.602Z,14.40
2024-03-02T17:22:04.968Z,14.50
2024-03-02T17:24:33.215Z,14.40
2024-03-02T17:27:01.365Z,14.40
2024-03-02T17:29:29.470Z,14.40
2024-03-02T17:31:57.982Z,14.50
2024-03-02T17:34:26.215Z,14.40
2024-03-02T17:36:55.780Z,14.30
2024-03-02T17:39:24.011Z,14.30
2024-03-02T17:41:52.376Z,14.30
2024-03-02T17:44:20.603Z,14.30
2024-03-02T17:46:48.753Z,14.10
2024-03-02T17:49:20.343Z,14.10
2024-03-02T17:51:49.020Z,14.20
2024-03-02T17:54:18.961Z,14.20
2024-03-02T17:56:47.114Z,14.20
2024-03-02T17:59:15.282Z,14.20
2024-03-02T18:01:43.444Z,14.10
2024-03-02T18:04:11.710Z,14.10
2024-03-02T18:06:39.839Z,13.90
2024-03-02T18:09:08.607Z,13.90
2024-03-02T18:11:38.237Z,14.00
2024-03-02T18:14:06.737Z,14.00
2024-03-02T18:16:35.216Z,13.90
2024-03-02T18:19:06.057Z,13.80
2024-03-02T18:21:35.145Z,13.80
2024-03-02T18:24:03.358Z,13.70
2024-03-02T18:26:34.140Z,13.50
2024-03-02T18:29:04.341Z,13.60
2024-03-02T18:31:32.772Z,13.60
2024-03-02T18:34:01.041Z,13.40
2024-03-02T18:36:29.269Z,13.50
2024-03-02T18:38:57.502Z,13.40
2024-03-02T18:41:25.981Z,13.50
2024-03-02T18:43:54.193Z,13.20
2024-03-02T18:46:23.828Z,13.20
2024-03-02T18:48:52.502Z,13.10
2024-03-02T18:51:23.188Z,13.10
2024-03-02T18:53:51.450Z,13.10
2024-03-02T18:56:19.940Z,13.10
2024-03-02T18:58:48.194Z,13.20
2024-03-02T19:01:17.332Z,13.20
2024-03-02T19:03:47.122Z,13.10
2024-03-02T19:06:18.571Z,13.10
2024-03-02T19:08:46.841Z,13.10
2024-03-02T19:11:16.134Z,13.00
2024-03-02T19:13:45.839Z,13.00
2024-03-02T19:16:14.377Z,12.90
2024-03-02T19:18:43.455Z,12.80
2024-03-02T19:21:13.119Z,12.80
2024-03-02T19:23:45.062Z,12.80
2024-03-02T19:26:19.775Z,12.80
2024-03-02T19:28:49.581Z,12.70
2024-03-02T19:31:18.039Z,12.60
2024-03-02T19:33:46.788Z,12.70
2024-03-02T19:36:16.383Z,12.70
2024-03-02T19:38:44.687Z,12.60
2024-03-02T19:41:12.899Z,12.60
2024-03-02T19:43:41.044Z,12.60
2024-03-02T19:46:09.398Z,12.60
2024-03-02T19:48:37.715Z,12.40
2024-03-02T19:51:06.151Z,12.40
2024-03-02T19:53:35.626Z,12.50
2024-03-02T19:56:03.778Z,12.50
2024-03-02T19:58:33.283Z,12.40
2024-03-02T20:01:01.511Z,12.30
2024-03-02T20:03:29.815Z,12.30
2024-03-02T20:05:57.989Z,12.30
2024-03-02T20:08:27.478Z,12.20
2024-03-02T20:10:57.251Z,12.20
2024-03-02T20:13:25.648Z,12.20
2024-03-02T20:15:53.917Z,12.30
2024-03-02T20:18:22.224Z,12.20
2024-03-02T20:20:50.393Z,12.20
2024-03-02T20:23:18.633Z,12.20
2024-03-02T20:25:46.780Z,12.20
2024-03-02T20:28:18.214Z,12.10
2024-03-02T20:30:46.557Z,12.10
2024-03-02T20:33:14.853Z,12.10
2024-03-02T20:35:43.120Z,12.00
2024-03-02T20:38:11.434Z,12.10
2024-03-02T20:40:39.699Z,12.00
2024-03-02T20:43:07.981Z,12.10
2024-03-02T20:45:37.681Z,12.10
2024-03-02T20:48:06.372Z,12.00
2024-03-02T20:50:34.726Z,12.00
2024-03-02T20:53:08.004Z,11.90
2024-03-02T20:55:37.372Z,11.90
2024-03-02T20:58:06.049Z,11.90
2024-03-02T21:00:34.346Z,11.80
2024-03-02T21:03:04.053Z,11.80
2024-03-02T21:05:32.454Z,11.80
2024-03-02T21:08:02.245Z,11.80
2024-03-02T21:10:30.422Z,11.80
2024-03-02T21:13:00.042Z,11.80
2024-03-02T21:15:28.375Z,11.80
2024-03-02T21:17:56.548Z,11.80
2024-03-02T21:20:26.402Z,11.80
2024-03-02T21:22:53.601Z,11.80
2024-03-02T21:25:22.012Z,11.90
2024-03-02T21:27:50.504Z,11.90
2024-03-02T21:30:19.720Z,11.70
2024-03-02T21:32:49.673Z,11.60
2024-03-02T21:35:18.032Z,11.70
2024-03-02T21:37:47.751Z,11.60
2024-03-02T21:40:17.739Z,11.60
2024-03-02T21:42:46.125Z,11.70
2024-03-02T21:45:15.390Z,11.80
2024-03-02T21:47:43.864Z,11.80
2024-03-02T21:50:12.975Z,11.70
2024-03-02T21:52:41.258Z,11.80
2024-03-02T21:55:12.032Z,11.80
2024-03-02T21:57:41.155Z,11.80
2024-03-02T22:00:10.878Z,11.80
2024-03-02T22:02:39.176Z,11.90
2024-03-02T22:05:08.315Z,11.90
2024-03-02T22:07:36.588Z,11.80
2024-03-02T22:10:05.919Z,11.80
2024-03-02T22:12:35.574Z,11.80
2024-03-02T22:15:04.149Z,11.80
2024-03-02T22:17:32.400Z,11.80
2024-03-02T22:20:00.772Z,11.60
2024-03-02T22:22:28.993Z,11.70
2024-03-02T22:24:57.253Z,11.70
2024-03-02T22:27:25.371Z,11.70
2024-03-02T22:29:54.984Z,11.60
2024-03-02T22:32:23.146Z,11.50
2024-03-02T22:34:51.271Z,11.40
2024-03-02T22:37:21.060Z,11.40
2024-03-02T22:39:49.328Z,11.30
2024-03-02T22:42:17.572Z,11.40
2024-03-02T22:44:45.711Z,11.40
2024-03-02T22:47:15.233Z,11.30
2024-03-02T22:49:43.401Z,11.20
2024-03-02T22:52:11.530Z,11.20
2024-03-02T22:54:39.729Z,11.20
2024-03-02T22:57:07.877Z,11.20
2024-03-02T22:59:36.004Z,11.20
2024-03-02T23:02:04.230Z,11.20
2024-03-02T23:04:34.760Z,11.30
2024-03-02T23:07:02.858Z,11.30
2024-03-02T23:09:30.936Z,11.20
2024-03-02T23:11:59.206Z,11.20
2024-03-02T23:14:27.416Z,11.20
2024-03-02T23:16:55.627Z,11.20
2024-03-02T23:19:24.130Z,11.10
2024-03-02T23:21:55.542Z,11.10
2024-03-02T23:24:23.832Z,11.20
2024-03-02T23:26:53.585Z,11.20
2024-03-02T23:29:22.008Z,11.20
2024-03-02T23:31:50.351Z,11.20
2024-03-02T23:34:18.752Z,11.40
2024-03-02T23:36:46.965Z,11.40
2024-03-02T23:39:37.523Z,11.30
2024-03-02T23:42:04.948Z,11.20
2024-03-02T23:44:33.075Z,11.20
2024-03-02T23:47:01.535Z,11.20
2024-03-02T23:49:29.610Z,11.10
2024-03-02T23:51:57.760Z,11.00
2024-03-02T23:54:27.417Z,11.00
2024-03-02T23:56:56.084Z,11.10
2024-03-02T23:59:24.325Z,11.00
